Nederlandse vliegveldverwachtingen (TAF)

Luchtvaartmeteorologische informatie voor operationeel gebruik en vluchtvoorbereiding is beschikbaar op www.luchtvaartmeteo.nl.

ZCZC
FC270900 EHWO AAA WOENSDRECHT/WOENSDRECHT   NLD   19 m.
TAF AMD EHWO 271454Z 2710/2722 CNL=

ZCZC
FC271700 EHGR AAC GILZE-RIJEN/GILZE-RIJEN   NLD   14 m.
TAF AMD EHGR 272154Z 2722/2806 CNL=

ZCZC
FT272300 EHLE     LELYSTAD/LELYSTAD   NLD   -3 m.
TAF EHLE 272320Z 2800/2906 31012KT 9999 SCT030
    BECMG 2802/2805 29007KT
    BECMG 2808/2811 24005KT
    BECMG 2812/2815 25010KT SCT015 BKN020
    PROB30 TEMPO 2815/2819 BKN007
    BECMG 2819/2822 25015KT 6000 SCT004 BKN006
    PROB30 2900/2906 2500 -RADZ BKN004=

ZCZC
FT272300 EHAM     AMSTERDAM/SCHIPHOL   NLD   -3 m.
TAF EHAM 272320Z 2800/2906 31012KT 9999 SCT030
    BECMG 2802/2805 29007KT
    BECMG 2807/2810 24005KT
    BECMG 2812/2815 25010KT SCT015 BKN020
    PROB30 TEMPO 2814/2818 BKN007
    BECMG 2818/2821 25015KT
    BECMG 2900/2903 SCT004 BKN006=

ZCZC
FT272300 EHRD     ROTTERDAM/THE HAGUE AIRPORT   NLD   -5 m.
TAF EHRD 272320Z 2800/2906 31010KT 9999 SCT030
    BECMG 2802/2805 29006KT
    BECMG 2807/2810 24005KT
    BECMG 2812/2815 25010KT SCT015 BKN020
    PROB30 TEMPO 2814/2818 BKN007
    BECMG 2818/2821 25015KT
    BECMG 2821/2824 6000 SCT004 BKN006=

ZCZC
FT272300 EHGG     GRONINGEN/EELDE   NLD   5 m.
TAF EHGG 272323Z 2800/2906 31015KT 9999 SCT025
    PROB30 TEMPO 2800/2803 7000 -SHRA SCT020TCU
    BECMG 2812/2815 27007KT
    BECMG 2815/2818 23010KT
    BECMG 2818/2821 BKN011
    BECMG 2823/2902 BKN006
    BECMG 2903/2906 26015KT=

ZCZC
FT272300 EHBK     MAASTRICHT/MAASTRICHT-AACHEN   NLD   114 m.
TAF EHBK 272323Z 2800/2906 27005KT 9999 SCT025
    PROB30 2806/2820 4000 BR BKN006
    BECMG 2817/2820 23012KT BKN010
    BECMG 2820/2823 7000 BKN007
    PROB40 2902/2906 2000 DZ BKN003=

ZCZC
FT272300 EHEH     EINDHOVEN/EINDHOVEN   NLD   22 m.
TAF EHEH 272322Z 2800/2906 27008KT CAVOK
    PROB40 2803/2809 2000 BR MIFG
    PROB30 2809/2823 2000 BR BKN002 OVC003
    BECMG 2818/2821 22011KT
    BECMG 2823/2902 4000 BR BKN008 BKN012
    PROB40 TEMPO 2823/2906 2000 -DZ BR BKN003 BKN005=

ZCZC
FC280100 EHKD CCA DE KOOY/DE KOOY   NLD   1 m.
TAF COR EHKD 280143Z 2802/2814 31015G25KT 9999 SCT020 SCT040
    PROB30 TEMPO 2802/2805 4500 -SHRA FEW018 BKN025
    BECMG 2804/2806 31012KT
    BECMG 2808/2810 29007KT
    BECMG 2811/2813 24009KT=

ZCZC
FC280100 EHVK RRC VOLKEL/VOLKEL   NLD   21 m.
TAF EHVK 280128Z 2802/2814 28007KT CAVOK
    PROB30 2804/2809 3500 BR MIFG=

ZCZC
FC280100 EHLW CCB LEEUWARDEN/LEEUWARDEN   NLD   1 m.
TAF COR EHLW 280144Z 2802/2814 31020G30KT 9999 SCT040
    PROB30 TEMPO 2802/2806 3500 -SHRA FEW018 BKN025
    BECMG 2804/2806 31015KT
    BECMG 2808/2810 31008KT
    BECMG 2813/2814 23010KT=

28/01/2022 03.00 uur LT